X  Sluiten METAR luchtvaart weer gegevens      EHRD Rotterdam The Hague Airport
Temperatuur
6°C Temperatuur
6°C Dauwpunt
100% Vochtigheid



Wind
14 KM/U
9 MPH
4 M/S
8 KTS



180°
Zuid
Huidig weer

Grotendeels bewolkt Grotendeels bewolkt
Luchtdruk 999.92 (hPa) - 29.53 (inHg)
Zicht 4.3 (mijl) - 7 (km)
Vliegveld
Vliegveld code EHRD

Locatie : Rotterdam The Hague Airport
Afstand: 16 (km)

Metar:
EHRD 030725Z AUTO 18008KT 150V210 7000 BKN007 BKN008 OVC009 06/06 Q1000 NOSIG

Tijd: 03-12-2020 08:25 CET